sensor_id;sensor_type;location;lat;lon;timestamp;pressure;altitude;pressure_sealevel;temperature;humidity
75312;BME280;63906;55.686;37.532;2023-09-19T00:04:23;100073.00;;;11.69;93.07
75312;BME280;63906;55.686;37.532;2023-09-19T00:09:29;100080.25;;;11.67;93.19
75312;BME280;63906;55.686;37.532;2023-09-19T00:14:30;100072.94;;;11.62;93.50
75312;BME280;63906;55.686;37.532;2023-09-19T00:19:30;100059.09;;;11.60;93.23
75312;BME280;63906;55.686;37.532;2023-09-19T00:24:31;100058.19;;;11.68;93.31
75312;BME280;63906;55.686;37.532;2023-09-19T00:29:31;100061.88;;;11.73;93.70
75312;BME280;63906;55.686;37.532;2023-09-19T00:34:33;100073.34;;;11.80;93.27
75312;BME280;63906;55.686;37.532;2023-09-19T00:39:34;100071.06;;;11.77;94.02
75312;BME280;63906;55.686;37.532;2023-09-19T00:44:35;100075.63;;;11.83;93.98
75312;BME280;63906;55.686;37.532;2023-09-19T00:49:38;100076.34;;;12.13;93.84
75312;BME280;63906;55.686;37.532;2023-09-19T00:54:38;100088.13;;;12.39;93.75
75312;BME280;63906;55.686;37.532;2023-09-19T00:59:39;100079.16;;;12.55;93.46
75312;BME280;63906;55.686;37.532;2023-09-19T01:04:40;100041.81;;;12.36;93.17
75312;BME280;63906;55.686;37.532;2023-09-19T01:09:42;100069.75;;;12.52;93.99
75312;BME280;63906;55.686;37.532;2023-09-19T01:15:04;100076.31;;;12.56;93.77
75312;BME280;63906;55.686;37.532;2023-09-19T01:30:46;100034.81;;;12.01;94.41
75312;BME280;63906;55.686;37.532;2023-09-19T01:35:47;100063.44;;;12.25;93.56
75312;BME280;63906;55.686;37.532;2023-09-19T01:41:02;100033.19;;;12.00;94.41
75312;BME280;63906;55.686;37.532;2023-09-19T01:56:36;100042.66;;;12.16;93.51
75312;BME280;63906;55.686;37.532;2023-09-19T02:01:39;100029.47;;;11.94;93.78
75312;BME280;63906;55.686;37.532;2023-09-19T02:06:41;100037.50;;;11.86;94.52
75312;BME280;63906;55.686;37.532;2023-09-19T02:11:42;100036.44;;;11.66;95.18
75312;BME280;63906;55.686;37.532;2023-09-19T02:16:42;100013.06;;;11.41;94.92
75312;BME280;63906;55.686;37.532;2023-09-19T02:21:43;100009.09;;;11.30;94.50
75312;BME280;63906;55.686;37.532;2023-09-19T02:26:43;100034.06;;;11.35;94.97
75312;BME280;63906;55.686;37.532;2023-09-19T02:31:44;100027.91;;;11.27;96.21
75312;BME280;63906;55.686;37.532;2023-09-19T02:36:46;100031.38;;;11.13;96.04
75312;BME280;63906;55.686;37.532;2023-09-19T02:41:47;100042.66;;;11.07;96.01
75312;BME280;63906;55.686;37.532;2023-09-19T02:46:47;100025.56;;;11.03;95.89
75312;BME280;63906;55.686;37.532;2023-09-19T02:51:48;100000.59;;;10.84;96.32
75312;BME280;63906;55.686;37.532;2023-09-19T02:56:48;100025.47;;;10.96;96.46
75312;BME280;63906;55.686;37.532;2023-09-19T03:01:49;99992.97;;;10.89;97.38
75312;BME280;63906;55.686;37.532;2023-09-19T03:06:50;100010.31;;;11.13;97.71
75312;BME280;63906;55.686;37.532;2023-09-19T03:11:51;99997.41;;;11.18;98.48
75312;BME280;63906;55.686;37.532;2023-09-19T03:16:51;100006.97;;;11.41;98.26
75312;BME280;63906;55.686;37.532;2023-09-19T03:21:52;100022.72;;;11.70;96.56
75312;BME280;63906;55.686;37.532;2023-09-19T03:26:53;100015.16;;;11.82;95.85
75312;BME280;63906;55.686;37.532;2023-09-19T03:31:54;100025.75;;;11.89;96.22
75312;BME280;63906;55.686;37.532;2023-09-19T03:36:54;100025.53;;;12.05;95.47
75312;BME280;63906;55.686;37.532;2023-09-19T03:41:55;100014.81;;;11.92;95.60
75312;BME280;63906;55.686;37.532;2023-09-19T03:46:56;99987.97;;;11.81;95.40
75312;BME280;63906;55.686;37.532;2023-09-19T03:51:57;100022.25;;;12.03;95.17
75312;BME280;63906;55.686;37.532;2023-09-19T03:56:57;99989.09;;;11.94;94.42
75312;BME280;63906;55.686;37.532;2023-09-19T04:01:58;100020.72;;;12.15;94.54
75312;BME280;63906;55.686;37.532;2023-09-19T04:06:59;100034.63;;;12.24;94.14
75312;BME280;63906;55.686;37.532;2023-09-19T04:12:00;100022.47;;;12.29;93.79
75312;BME280;63906;55.686;37.532;2023-09-19T04:17:00;100001.19;;;12.09;93.33
75312;BME280;63906;55.686;37.532;2023-09-19T04:22:01;99987.78;;;12.11;93.49
75312;BME280;63906;55.686;37.532;2023-09-19T04:27:01;100005.44;;;12.32;93.07
75312;BME280;63906;55.686;37.532;2023-09-19T04:32:03;99985.03;;;12.19;93.16
75312;BME280;63906;55.686;37.532;2023-09-19T04:37:06;99984.03;;;12.20;92.56
75312;BME280;63906;55.686;37.532;2023-09-19T04:42:06;99959.25;;;12.21;92.57
75312;BME280;63906;55.686;37.532;2023-09-19T04:47:07;99960.59;;;12.38;91.98
75312;BME280;63906;55.686;37.532;2023-09-19T04:52:07;99992.13;;;12.75;91.27
75312;BME280;63906;55.686;37.532;2023-09-19T04:57:07;100001.75;;;12.96;90.65
75312;BME280;63906;55.686;37.532;2023-09-19T05:02:08;99982.66;;;12.93;89.01
75312;BME280;63906;55.686;37.532;2023-09-19T05:07:09;99970.22;;;12.87;89.65
75312;BME280;63906;55.686;37.532;2023-09-19T05:12:10;99979.84;;;13.02;90.01
75312;BME280;63906;55.686;37.532;2023-09-19T05:17:11;99968.19;;;12.89;88.27
75312;BME280;63906;55.686;37.532;2023-09-19T05:22:11;99943.00;;;12.52;89.08
75312;BME280;63906;55.686;37.532;2023-09-19T05:27:12;99963.94;;;12.54;89.74
75312;BME280;63906;55.686;37.532;2023-09-19T05:32:13;99925.44;;;12.31;89.97
75312;BME280;63906;55.686;37.532;2023-09-19T05:37:13;99931.31;;;12.33;89.90
75312;BME280;63906;55.686;37.532;2023-09-19T05:42:16;99966.22;;;12.57;90.37
75312;BME280;63906;55.686;37.532;2023-09-19T05:47:17;99975.22;;;12.69;90.10
75312;BME280;63906;55.686;37.532;2023-09-19T05:52:18;99939.88;;;12.70;89.61
75312;BME280;63906;55.686;37.532;2023-09-19T05:57:19;99930.13;;;12.71;89.02
75312;BME280;63906;55.686;37.532;2023-09-19T06:02:20;99930.53;;;12.68;88.83
75312;BME280;63906;55.686;37.532;2023-09-19T06:07:23;99966.44;;;13.03;88.99
75312;BME280;63906;55.686;37.532;2023-09-19T06:12:26;99961.38;;;13.15;88.24
75312;BME280;63906;55.686;37.532;2023-09-19T06:17:26;99958.03;;;13.34;87.92
75312;BME280;63906;55.686;37.532;2023-09-19T06:22:28;99952.94;;;13.33;88.03
75312;BME280;63906;55.686;37.532;2023-09-19T06:27:29;99942.22;;;13.54;87.81
75312;BME280;63906;55.686;37.532;2023-09-19T06:32:30;99947.53;;;13.61;87.51
75312;BME280;63906;55.686;37.532;2023-09-19T06:37:30;99921.69;;;13.69;87.28
75312;BME280;63906;55.686;37.532;2023-09-19T06:42:30;99950.34;;;14.52;86.48
75312;BME280;63906;55.686;37.532;2023-09-19T06:47:31;99968.00;;;15.36;84.49
75312;BME280;63906;55.686;37.532;2023-09-19T06:52:32;99955.88;;;15.85;84.11
75312;BME280;63906;55.686;37.532;2023-09-19T06:57:35;99947.63;;;15.93;81.65
75312;BME280;63906;55.686;37.532;2023-09-19T07:02:36;99967.38;;;16.47;81.86
75312;BME280;63906;55.686;37.532;2023-09-19T07:07:36;99964.69;;;16.29;79.34
75312;BME280;63906;55.686;37.532;2023-09-19T07:12:37;99950.22;;;16.25;80.78
75312;BME280;63906;55.686;37.532;2023-09-19T07:17:37;99946.59;;;15.94;79.12
75312;BME280;63906;55.686;37.532;2023-09-19T07:22:38;99937.47;;;15.90;80.63
75312;BME280;63906;55.686;37.532;2023-09-19T07:27:41;99913.34;;;15.92;79.03
75312;BME280;63906;55.686;37.532;2023-09-19T07:32:41;99950.41;;;16.66;78.98
75312;BME280;63906;55.686;37.532;2023-09-19T07:37:41;99959.50;;;17.44;77.62
75312;BME280;63906;55.686;37.532;2023-09-19T07:42:42;99936.38;;;17.86;75.49
75312;BME280;63906;55.686;37.532;2023-09-19T07:47:49;99909.53;;;17.46;74.78
75312;BME280;63906;55.686;37.532;2023-09-19T07:52:50;99903.47;;;17.39;73.85
75312;BME280;63906;55.686;37.532;2023-09-19T07:57:54;99910.94;;;17.60;72.46
75312;BME280;63906;55.686;37.532;2023-09-19T08:02:55;99909.88;;;18.03;73.15
75312;BME280;63906;55.686;37.532;2023-09-19T08:07:55;99897.34;;;17.92;71.93
75312;BME280;63906;55.686;37.532;2023-09-19T08:12:56;99868.16;;;17.97;69.60
75312;BME280;63906;55.686;37.532;2023-09-19T08:17:58;99898.56;;;18.71;67.59
75312;BME280;63906;55.686;37.532;2023-09-19T08:22:59;99915.47;;;18.77;68.93
75312;BME280;63906;55.686;37.532;2023-09-19T08:28:00;99849.13;;;18.28;68.26
75312;BME280;63906;55.686;37.532;2023-09-19T08:33:02;99894.00;;;18.83;68.85
75312;BME280;63906;55.686;37.532;2023-09-19T08:38:05;99888.78;;;18.89;68.76
75312;BME280;63906;55.686;37.532;2023-09-19T08:43:06;99888.16;;;18.70;68.59
75312;BME280;63906;55.686;37.532;2023-09-19T08:48:23;99893.34;;;18.76;69.41
75312;BME280;63906;55.686;37.532;2023-09-19T09:04:11;99869.47;;;18.98;69.16
75312;BME280;63906;55.686;37.532;2023-09-19T09:09:15;99868.94;;;18.85;69.40
75312;BME280;63906;55.686;37.532;2023-09-19T09:14:17;99879.25;;;19.21;68.89
75312;BME280;63906;55.686;37.532;2023-09-19T09:19:18;99877.22;;;19.28;67.99
75312;BME280;63906;55.686;37.532;2023-09-19T09:24:31;99898.56;;;19.74;68.22
75312;BME280;63906;55.686;37.532;2023-09-19T09:29:51;99859.03;;;19.93;65.54
75312;BME280;63906;55.686;37.532;2023-09-19T09:34:59;99853.72;;;20.31;65.71
75312;BME280;63906;55.686;37.532;2023-09-19T09:40:01;99819.22;;;20.52;61.72
75312;BME280;63906;55.686;37.532;2023-09-19T09:45:31;99845.31;;;20.88;63.47
75312;BME280;63906;55.686;37.532;2023-09-19T09:50:36;99867.44;;;21.11;63.26
75312;BME280;63906;55.686;37.532;2023-09-19T09:56:09;99848.38;;;21.29;61.21
75312;BME280;63906;55.686;37.532;2023-09-19T10:01:10;99843.06;;;21.07;59.66
75312;BME280;63906;55.686;37.532;2023-09-19T10:06:12;99838.63;;;20.91;61.88
75312;BME280;63906;55.686;37.532;2023-09-19T10:11:44;99831.41;;;21.18;62.37
75312;BME280;63906;55.686;37.532;2023-09-19T10:16:46;99818.22;;;23.22;57.76
75312;BME280;63906;55.686;37.532;2023-09-19T10:21:47;99822.50;;;25.42;55.78
75312;BME280;63906;55.686;37.532;2023-09-19T10:26:49;99809.34;;;26.98;51.81
75312;BME280;63906;55.686;37.532;2023-09-19T10:31:52;99789.56;;;27.82;48.78
75312;BME280;63906;55.686;37.532;2023-09-19T10:36:53;99794.25;;;28.81;44.67
75312;BME280;63906;55.686;37.532;2023-09-19T10:42:02;99763.63;;;29.17;42.87
75312;BME280;63906;55.686;37.532;2023-09-19T10:47:05;99791.78;;;29.61;42.77
75312;BME280;63906;55.686;37.532;2023-09-19T10:52:07;99786.59;;;29.73;39.23
75312;BME280;63906;55.686;37.532;2023-09-19T10:57:11;99768.91;;;30.41;40.00
75312;BME280;63906;55.686;37.532;2023-09-19T11:02:17;99775.41;;;30.14;39.60
75312;BME280;63906;55.686;37.532;2023-09-19T11:07:18;99754.75;;;30.04;39.92
75312;BME280;63906;55.686;37.532;2023-09-19T11:17:35;99773.44;;;29.58;40.48
75312;BME280;63906;55.686;37.532;2023-09-19T11:33:30;99766.84;;;25.86;44.88
75312;BME280;63906;55.686;37.532;2023-09-19T11:49:08;99748.41;;;23.01;51.04
75312;BME280;63906;55.686;37.532;2023-09-19T11:54:11;99739.22;;;22.72;52.58
75312;BME280;63906;55.686;37.532;2023-09-19T11:59:30;99716.56;;;22.17;55.90
75312;BME280;63906;55.686;37.532;2023-09-19T12:04:44;99737.50;;;22.20;55.14
75312;BME280;63906;55.686;37.532;2023-09-19T12:09:51;99721.88;;;22.07;55.87
75312;BME280;63906;55.686;37.532;2023-09-19T12:15:02;99725.25;;;22.49;55.84
75312;BME280;63906;55.686;37.532;2023-09-19T12:20:04;99698.88;;;22.16;56.55
75312;BME280;63906;55.686;37.532;2023-09-19T12:25:15;99709.88;;;22.19;57.52
75312;BME280;63906;55.686;37.532;2023-09-19T12:30:17;99694.50;;;21.99;57.88
75312;BME280;63906;55.686;37.532;2023-09-19T12:35:31;99675.28;;;22.13;58.01
75312;BME280;63906;55.686;37.532;2023-09-19T12:40:35;99688.38;;;22.09;58.45
75312;BME280;63906;55.686;37.532;2023-09-19T12:45:38;99682.78;;;22.16;58.44
75312;BME280;63906;55.686;37.532;2023-09-19T12:50:59;99672.13;;;22.51;57.94
75312;BME280;63906;55.686;37.532;2023-09-19T12:56:00;99672.94;;;23.08;55.44
75312;BME280;63906;55.686;37.532;2023-09-19T13:01:01;99669.13;;;23.34;55.66
75312;BME280;63906;55.686;37.532;2023-09-19T13:06:05;99667.47;;;24.13;53.66
75312;BME280;63906;55.686;37.532;2023-09-19T13:16:12;99652.50;;;25.58;49.03
75312;BME280;63906;55.686;37.532;2023-09-19T13:21:37;99625.69;;;25.71;48.55
75312;BME280;63906;55.686;37.532;2023-09-19T13:26:45;99651.50;;;25.30;49.12
75312;BME280;63906;55.686;37.532;2023-09-19T13:31:52;99623.53;;;24.67;49.87
75312;BME280;63906;55.686;37.532;2023-09-19T13:36:53;99650.38;;;24.43;50.82
75312;BME280;63906;55.686;37.532;2023-09-19T13:41:54;99650.84;;;24.06;51.97
75312;BME280;63906;55.686;37.532;2023-09-19T13:46:55;99582.91;;;23.31;53.14
75312;BME280;63906;55.686;37.532;2023-09-19T13:51:57;99633.44;;;23.24;54.31
75312;BME280;63906;55.686;37.532;2023-09-19T13:56:58;99647.41;;;23.16;54.61
75312;BME280;63906;55.686;37.532;2023-09-19T14:01:58;99565.59;;;22.42;54.89
75312;BME280;63906;55.686;37.532;2023-09-19T14:06:59;99626.50;;;22.51;55.50
75312;BME280;63906;55.686;37.532;2023-09-19T14:12:00;99643.38;;;22.26;57.08
75312;BME280;63906;55.686;37.532;2023-09-19T14:17:01;99617.25;;;21.81;58.10
75312;BME280;63906;55.686;37.532;2023-09-19T14:22:02;99601.91;;;21.61;58.17
75312;BME280;63906;55.686;37.532;2023-09-19T14:27:07;99612.97;;;21.75;59.35
75312;BME280;63906;55.686;37.532;2023-09-19T14:32:12;99621.56;;;21.87;58.69
75312;BME280;63906;55.686;37.532;2023-09-19T14:37:13;99623.66;;;21.75;58.98
75312;BME280;63906;55.686;37.532;2023-09-19T14:42:14;99608.28;;;21.45;59.45
75312;BME280;63906;55.686;37.532;2023-09-19T14:47:17;99628.25;;;21.27;60.03
75312;BME280;63906;55.686;37.532;2023-09-19T14:52:19;99582.56;;;20.54;62.02
75312;BME280;63906;55.686;37.532;2023-09-19T14:57:20;99604.53;;;20.61;62.06
75312;BME280;63906;55.686;37.532;2023-09-19T15:02:24;99611.03;;;20.38;62.72
75312;BME280;63906;55.686;37.532;2023-09-19T15:07:27;99609.94;;;20.07;63.12
75312;BME280;63906;55.686;37.532;2023-09-19T15:12:29;99585.09;;;19.58;64.59
75312;BME280;63906;55.686;37.532;2023-09-19T15:17:36;99608.59;;;19.39;66.59
75312;BME280;63906;55.686;37.532;2023-09-19T15:22:37;99615.09;;;19.26;65.78
75312;BME280;63906;55.686;37.532;2023-09-19T15:27:38;99616.28;;;18.97;66.50
75312;BME280;63906;55.686;37.532;2023-09-19T15:32:38;99587.19;;;18.45;66.76
75312;BME280;63906;55.686;37.532;2023-09-19T15:37:39;99598.66;;;18.28;68.12
75312;BME280;63906;55.686;37.532;2023-09-19T15:42:41;99575.00;;;17.87;69.64
75312;BME280;63906;55.686;37.532;2023-09-19T15:47:42;99575.53;;;17.60;69.80
75312;BME280;63906;55.686;37.532;2023-09-19T15:52:45;99599.72;;;17.59;70.39
75312;BME280;63906;55.686;37.532;2023-09-19T15:57:46;99591.69;;;17.30;71.33
75312;BME280;63906;55.686;37.532;2023-09-19T16:02:47;99601.66;;;17.11;71.79
75312;BME280;63906;55.686;37.532;2023-09-19T16:07:50;99605.72;;;17.02;71.41
75312;BME280;63906;55.686;37.532;2023-09-19T16:12:51;99609.31;;;16.84;71.22
75312;BME280;63906;55.686;37.532;2023-09-19T16:17:51;99601.41;;;16.66;71.71
75312;BME280;63906;55.686;37.532;2023-09-19T16:22:52;99603.56;;;16.46;72.26
75312;BME280;63906;55.686;37.532;2023-09-19T16:27:52;99580.53;;;16.16;72.30
75312;BME280;63906;55.686;37.532;2023-09-19T16:32:53;99600.97;;;16.15;73.01
75312;BME280;63906;55.686;37.532;2023-09-19T16:37:53;99592.25;;;15.97;73.41
75312;BME280;63906;55.686;37.532;2023-09-19T16:42:54;99611.94;;;15.89;73.85
75312;BME280;63906;55.686;37.532;2023-09-19T16:47:54;99617.72;;;15.86;74.05
75312;BME280;63906;55.686;37.532;2023-09-19T16:52:58;99630.75;;;15.87;76.77
75312;BME280;63906;55.686;37.532;2023-09-19T16:57:59;99625.81;;;15.91;75.99
75312;BME280;63906;55.686;37.532;2023-09-19T17:03:02;99618.38;;;15.81;75.63
75312;BME280;63906;55.686;37.532;2023-09-19T17:08:04;99614.91;;;15.81;79.18
75312;BME280;63906;55.686;37.532;2023-09-19T17:13:05;99637.34;;;16.27;79.58
75312;BME280;63906;55.686;37.532;2023-09-19T17:18:08;99621.97;;;16.59;78.32
75312;BME280;63906;55.686;37.532;2023-09-19T17:23:09;99640.84;;;16.81;77.82
75312;BME280;63906;55.686;37.532;2023-09-19T17:28:09;99633.25;;;16.84;76.60
75312;BME280;63906;55.686;37.532;2023-09-19T17:33:10;99649.47;;;16.64;78.07
75312;BME280;63906;55.686;37.532;2023-09-19T17:38:10;99635.72;;;16.67;77.74
75312;BME280;63906;55.686;37.532;2023-09-19T17:43:11;99638.72;;;16.59;77.69
75312;BME280;63906;55.686;37.532;2023-09-19T17:48:11;99623.91;;;16.40;77.41
75312;BME280;63906;55.686;37.532;2023-09-19T17:53:12;99633.16;;;16.49;77.55
75312;BME280;63906;55.686;37.532;2023-09-19T17:58:12;99641.34;;;16.48;77.49
75312;BME280;63906;55.686;37.532;2023-09-19T18:03:13;99635.69;;;16.56;77.38
75312;BME280;63906;55.686;37.532;2023-09-19T18:08:14;99624.28;;;16.67;77.30
75312;BME280;63906;55.686;37.532;2023-09-19T18:13:14;99613.28;;;16.63;76.34
75312;BME280;63906;55.686;37.532;2023-09-19T18:18:15;99635.28;;;16.71;76.64
75312;BME280;63906;55.686;37.532;2023-09-19T18:23:15;99650.44;;;16.82;76.26
75312;BME280;63906;55.686;37.532;2023-09-19T18:28:16;99639.50;;;16.90;75.88
75312;BME280;63906;55.686;37.532;2023-09-19T18:33:17;99622.13;;;17.22;74.83
75312;BME280;63906;55.686;37.532;2023-09-19T18:38:17;99625.72;;;17.68;72.59
75312;BME280;63906;55.686;37.532;2023-09-19T18:43:20;99629.19;;;17.81;72.02
75312;BME280;63906;55.686;37.532;2023-09-19T18:48:20;99631.63;;;18.11;70.51
75312;BME280;63906;55.686;37.532;2023-09-19T18:53:21;99630.94;;;18.15;69.79
75312;BME280;63906;55.686;37.532;2023-09-19T18:58:22;99635.13;;;17.83;70.58
75312;BME280;63906;55.686;37.532;2023-09-19T19:03:27;99610.28;;;17.42;71.48
75312;BME280;63906;55.686;37.532;2023-09-19T19:08:27;99595.66;;;17.16;72.03
75312;BME280;63906;55.686;37.532;2023-09-19T19:13:28;99626.94;;;17.49;71.38
75312;BME280;63906;55.686;37.532;2023-09-19T19:18:28;99592.81;;;17.58;69.68
75312;BME280;63906;55.686;37.532;2023-09-19T19:23:31;99619.31;;;17.93;68.80
75312;BME280;63906;55.686;37.532;2023-09-19T19:28:31;99614.63;;;17.83;68.87
75312;BME280;63906;55.686;37.532;2023-09-19T19:33:32;99619.75;;;18.01;67.79
75312;BME280;63906;55.686;37.532;2023-09-19T19:38:33;99626.56;;;18.09;66.95
75312;BME280;63906;55.686;37.532;2023-09-19T19:43:33;99615.56;;;18.06;66.80
75312;BME280;63906;55.686;37.532;2023-09-19T19:48:34;99613.03;;;17.99;67.27
75312;BME280;63906;55.686;37.532;2023-09-19T19:53:36;99627.41;;;17.98;66.58
75312;BME280;63906;55.686;37.532;2023-09-19T19:58:38;99603.91;;;17.95;66.43
75312;BME280;63906;55.686;37.532;2023-09-19T20:03:38;99563.94;;;17.66;66.40
75312;BME280;63906;55.686;37.532;2023-09-19T20:08:39;99623.44;;;18.00;66.15
75312;BME280;63906;55.686;37.532;2023-09-19T20:13:40;99624.94;;;18.08;65.41
75312;BME280;63906;55.686;37.532;2023-09-19T20:18:40;99620.78;;;18.00;65.46
75312;BME280;63906;55.686;37.532;2023-09-19T20:23:43;99611.16;;;17.83;65.63
75312;BME280;63906;55.686;37.532;2023-09-19T20:28:47;99610.31;;;17.82;65.39
75312;BME280;63906;55.686;37.532;2023-09-19T20:33:47;99614.56;;;17.95;65.08
75312;BME280;63906;55.686;37.532;2023-09-19T20:38:49;99592.31;;;17.72;65.04
75312;BME280;63906;55.686;37.532;2023-09-19T20:43:50;99620.84;;;17.89;64.66
75312;BME280;63906;55.686;37.532;2023-09-19T20:48:50;99585.25;;;17.66;64.79
75312;BME280;63906;55.686;37.532;2023-09-19T20:53:52;99622.16;;;17.74;65.25
75312;BME280;63906;55.686;37.532;2023-09-19T20:58:53;99607.84;;;17.52;65.68
75312;BME280;63906;55.686;37.532;2023-09-19T21:03:54;99601.16;;;17.38;65.91
75312;BME280;63906;55.686;37.532;2023-09-19T21:08:56;99620.81;;;17.48;65.90
75312;BME280;63906;55.686;37.532;2023-09-19T21:13:57;99629.00;;;17.59;65.81
75312;BME280;63906;55.686;37.532;2023-09-19T21:18:58;99620.69;;;17.55;65.64
75312;BME280;63906;55.686;37.532;2023-09-19T21:24:04;99614.19;;;17.51;65.44
75312;BME280;63906;55.686;37.532;2023-09-19T21:29:05;99575.72;;;17.42;65.10
75312;BME280;63906;55.686;37.532;2023-09-19T21:34:06;99602.41;;;17.47;65.23
75312;BME280;63906;55.686;37.532;2023-09-19T21:39:08;99616.53;;;17.47;65.49
75312;BME280;63906;55.686;37.532;2023-09-19T21:44:09;99591.31;;;17.38;65.07
75312;BME280;63906;55.686;37.532;2023-09-19T21:49:10;99596.44;;;17.28;65.52
75312;BME280;63906;55.686;37.532;2023-09-19T21:54:10;99602.00;;;17.27;65.33
75312;BME280;63906;55.686;37.532;2023-09-19T21:59:11;99598.06;;;17.17;65.35
75312;BME280;63906;55.686;37.532;2023-09-19T22:04:11;99596.09;;;17.13;65.07
75312;BME280;63906;55.686;37.532;2023-09-19T22:09:12;99587.81;;;17.09;64.74
75312;BME280;63906;55.686;37.532;2023-09-19T22:14:13;99593.44;;;17.13;64.72
75312;BME280;63906;55.686;37.532;2023-09-19T22:19:13;99599.38;;;17.03;64.99
75312;BME280;63906;55.686;37.532;2023-09-19T22:24:16;99611.50;;;16.99;65.09
75312;BME280;63906;55.686;37.532;2023-09-19T22:29:20;99613.13;;;17.00;64.98
75312;BME280;63906;55.686;37.532;2023-09-19T22:34:21;99583.78;;;16.72;65.48
75312;BME280;63906;55.686;37.532;2023-09-19T22:39:21;99573.47;;;16.87;64.66
75312;BME280;63906;55.686;37.532;2023-09-19T22:44:25;99580.41;;;16.88;64.42
75312;BME280;63906;55.686;37.532;2023-09-19T22:49:27;99594.50;;;17.00;64.55
75312;BME280;63906;55.686;37.532;2023-09-19T22:54:29;99544.78;;;16.65;64.75
75312;BME280;63906;55.686;37.532;2023-09-19T22:59:36;99575.69;;;16.78;65.15
75312;BME280;63906;55.686;37.532;2023-09-19T23:04:36;99600.28;;;16.74;65.11
75312;BME280;63906;55.686;37.532;2023-09-19T23:09:38;99570.56;;;16.53;65.47
75312;BME280;63906;55.686;37.532;2023-09-19T23:14:39;99591.59;;;16.66;65.55
75312;BME280;63906;55.686;37.532;2023-09-19T23:19:42;99607.44;;;16.73;65.56
75312;BME280;63906;55.686;37.532;2023-09-19T23:24:43;99549.13;;;16.25;65.52
75312;BME280;63906;55.686;37.532;2023-09-19T23:29:44;99531.19;;;16.08;65.88
75312;BME280;63906;55.686;37.532;2023-09-19T23:34:45;99579.19;;;16.49;66.19
75312;BME280;63906;55.686;37.532;2023-09-19T23:39:47;99588.53;;;16.39;66.02
75312;BME280;63906;55.686;37.532;2023-09-19T23:44:47;99532.19;;;15.96;66.27
75312;BME280;63906;55.686;37.532;2023-09-19T23:49:51;99552.44;;;16.08;66.44
75312;BME280;63906;55.686;37.532;2023-09-19T23:54:53;99583.22;;;16.28;66.32
75312;BME280;63906;55.686;37.532;2023-09-19T23:59:54;99588.53;;;16.28;66.53
